Time;durP1;ratioP1;P1;durP2;ratioP2;P2;SDS_P1;SDS_P2;PMS_P1;PMS_P2;Temp;Humidity;BMP_temperature;BMP_pressure;BME280_temperature;BME280_humidity;BME280_pressure;Samples;Min_cycle;Max_cycle;Signal;HPM_P1;HPM_P2
2022/11/17 00:08:04;;;;;;;0.38;0.38;;;;;;;;;;6360256;22;20011;-93
2022/11/17 00:10:31;;;;;;;0.40;0.40;;;;;;;;;;6335779;22;20023;-91
2022/11/17 00:16:20;;;;;;;0.30;0.30;;;;;;;;;;6363375;22;19999;-93
2022/11/17 00:21:54;;;;;;;0.30;0.30;;;;;;;;;;6364578;22;20015;-92
2022/11/17 00:24:22;;;;;;;0.30;0.30;;;;;;;;;;6338686;22;20024;-91
2022/11/17 00:27:01;;;;;;;0.20;0.20;;;;;;;;;;6311745;22;20015;-92
2022/11/17 00:29:31;;;;;;;1.55;1.45;;;;;;;;;;6337690;22;20002;-93
2022/11/17 00:58:11;;;;;;;0.30;0.30;;;;;;;;;;6338389;22;20030;-93
2022/11/17 01:00:37;;;;;;;0.20;0.20;;;;;;;;;;6310839;22;20270;-93
2022/11/17 01:03:03;;;;;;;0.30;0.30;;;;;;;;;;6310919;22;20070;-95
2022/11/17 01:05:30;;;;;;;0.32;0.32;;;;;;;;;;6284639;22;20070;-93
2022/11/17 01:07:56;;;;;;;0.30;0.30;;;;;;;;;;6284538;22;20022;-92
2022/11/17 01:10:22;;;;;;;0.50;0.50;;;;;;;;;;6306407;22;20019;-92
2022/11/17 01:12:51;;;;;;;0.30;0.30;;;;;;;;;;6307801;22;20023;-92
2022/11/17 01:15:20;;;;;;;0.30;0.30;;;;;;;;;;6335567;22;20049;-94
2022/11/17 01:17:47;;;;;;;0.20;0.20;;;;;;;;;;6284246;22;20022;-94
2022/11/17 01:20:47;;;;;;;0.20;0.20;;;;;;;;;;6340932;22;20014;-93
2022/11/17 01:23:15;;;;;;;0.30;0.30;;;;;;;;;;6286213;22;20045;-93
2022/11/17 01:25:41;;;;;;;0.30;0.30;;;;;;;;;;6310903;22;20019;-94
2022/11/17 01:28:09;;;;;;;0.40;0.40;;;;;;;;;;6310579;22;20015;-94
2022/11/17 01:30:35;;;;;;;0.40;0.40;;;;;;;;;;6311992;22;20022;-93
2022/11/17 01:33:01;;;;;;;0.20;0.20;;;;;;;;;;6309479;22;20022;-93
2022/11/17 01:35:27;;;;;;;0.30;0.30;;;;;;;;;;6311481;22;20022;-94
2022/11/17 01:37:54;;;;;;;0.30;0.30;;;;;;;;;;6309757;22;20021;-94
2022/11/17 01:40:20;;;;;;;0.32;0.32;;;;;;;;;;6307972;22;20072;-93
2022/11/17 01:42:51;;;;;;;0.40;0.40;;;;;;;;;;6309807;22;20029;-94
2022/11/17 01:45:30;;;;;;;0.20;0.20;;;;;;;;;;6337579;22;20015;-93
2022/11/17 01:47:59;;;;;;;0.30;0.30;;;;;;;;;;6309874;22;20025;-94
2022/11/17 01:50:34;;;;;;;0.25;0.25;;;;;;;;;;6306825;22;20025;-94
2022/11/17 01:53:02;;;;;;;0.20;0.20;;;;;;;;;;6309625;22;20072;-95
2022/11/17 01:55:36;;;;;;;0.25;0.25;;;;;;;;;;6308597;22;20077;-95
2022/11/17 01:58:06;;;;;;;0.20;0.20;;;;;;;;;;6310255;22;20375;-96
2022/11/17 02:04:05;;;;;;;0.30;0.30;;;;;;;;;;6374073;22;20014;-96
2022/11/17 02:06:43;;;;;;;0.20;0.20;;;;;;;;;;6362920;22;20002;-95
2022/11/17 02:12:39;;;;;;;0.20;0.20;;;;;;;;;;6334592;22;20061;-95
2022/11/17 02:15:06;;;;;;;0.22;0.22;;;;;;;;;;6309463;22;20097;-94
2022/11/17 02:17:40;;;;;;;0.30;0.30;;;;;;;;;;6310431;22;20025;-94
2022/11/17 02:20:21;;;;;;;0.30;0.30;;;;;;;;;;6282950;22;20030;-94
2022/11/17 02:23:20;;;;;;;0.25;0.25;;;;;;;;;;6311962;22;20066;-94
2022/11/17 02:26:11;;;;;;;0.30;0.30;;;;;;;;;;6308598;22;20015;-94
2022/11/17 02:28:45;;;;;;;0.20;0.20;;;;;;;;;;6311596;22;20006;-94
2022/11/17 02:31:34;;;;;;;0.20;0.20;;;;;;;;;;6338978;22;19999;-93
2022/11/17 02:34:19;;;;;;;0.28;0.28;;;;;;;;;;6312225;22;20019;-95
2022/11/17 02:37:18;;;;;;;0.22;0.22;;;;;;;;;;6309898;22;20045;-94
2022/11/17 02:39:52;;;;;;;0.40;0.40;;;;;;;;;;6291303;22;20046;-95
2022/11/17 03:11:07;;;;;;;0.35;0.35;;;;;;;;;;6350219;22;20023;-93
2022/11/17 03:13:51;;;;;;;1.75;1.65;;;;;;;;;;6338807;22;20067;-92
2022/11/17 03:16:35;;;;;;;2.75;2.33;;;;;;;;;;6337879;22;20042;-94
2022/11/17 03:19:18;;;;;;;0.30;0.30;;;;;;;;;;6339629;22;20019;-94
2022/11/17 03:21:53;;;;;;;0.30;0.30;;;;;;;;;;6338147;22;20026;-93
2022/11/17 03:24:34;;;;;;;0.50;0.50;;;;;;;;;;6340610;22;20003;-93
2022/11/17 03:27:06;;;;;;;0.25;0.25;;;;;;;;;;6336483;22;20015;-93
2022/11/17 03:29:42;;;;;;;0.20;0.20;;;;;;;;;;6310111;22;20005;-95
2022/11/17 03:32:25;;;;;;;0.30;0.30;;;;;;;;;;6338607;22;20010;-94
2022/11/17 03:35:08;;;;;;;0.22;0.22;;;;;;;;;;6311604;22;20082;-95
2022/11/17 03:37:48;;;;;;;0.30;0.30;;;;;;;;;;6338580;22;20025;-95
2022/11/17 03:40:16;;;;;;;0.40;0.40;;;;;;;;;;6337947;22;20049;-96
2022/11/17 03:42:51;;;;;;;0.32;0.32;;;;;;;;;;6336085;22;20015;-94
2022/11/17 03:45:41;;;;;;;0.40;0.40;;;;;;;;;;6338591;22;20018;-95
2022/11/17 03:48:22;;;;;;;0.40;0.40;;;;;;;;;;6336982;22;20041;-96
2022/11/17 03:56:00;;;;;;;0.30;0.30;;;;;;;;;;6357388;22;20023;-95
2022/11/17 04:16:59;;;;;;;0.20;0.20;;;;;;;;;;6359681;22;20023;-94
2022/11/17 04:19:27;;;;;;;0.30;0.30;;;;;;;;;;6338129;22;20019;-93
2022/11/17 04:21:54;;;;;;;0.28;0.28;;;;;;;;;;6311979;22;20043;-95
2022/11/17 04:24:24;;;;;;;0.30;0.30;;;;;;;;;;6337129;22;20019;-95
2022/11/17 04:29:48;;;;;;;0.30;0.30;;;;;;;;;;6364060;22;20023;-93
2022/11/17 04:32:18;;;;;;;0.40;0.40;;;;;;;;;;6313772;22;20066;-94
2022/11/17 04:37:41;;;;;;;2.80;2.55;;;;;;;;;;6359810;22;20023;-95
2022/11/17 04:40:09;;;;;;;0.38;0.38;;;;;;;;;;6337588;22;20644;-93
2022/11/17 04:49:10;;;;;;;0.30;0.30;;;;;;;;;;6244485;23;20024;-94
2022/11/17 04:59:42;;;;;;;0.65;0.65;;;;;;;;;;6364629;22;20030;-94
2022/11/17 05:02:14;;;;;;;0.28;0.28;;;;;;;;;;6335560;22;20112;-94
2022/11/17 05:07:51;;;;;;;0.30;0.30;;;;;;;;;;6374464;22;20071;-95
2022/11/17 05:26:05;;;;;;;0.30;0.30;;;;;;;;;;6361589;22;20444;-94
2022/11/17 05:28:31;;;;;;;0.30;0.30;;;;;;;;;;6335453;22;20043;-94
2022/11/17 05:31:02;;;;;;;0.30;0.30;;;;;;;;;;6361499;22;20022;-94
2022/11/17 05:46:31;;;;;;;0.20;0.20;;;;;;;;;;6359128;22;20296;-95
2022/11/17 05:49:01;;;;;;;0.22;0.22;;;;;;;;;;6359888;22;20007;-95
2022/11/17 05:51:29;;;;;;;0.30;0.30;;;;;;;;;;6335173;22;20074;-95
2022/11/17 05:55:04;;;;;;;0.30;0.30;;;;;;;;;;6336958;22;20005;-95
2022/11/17 05:57:33;;;;;;;0.30;0.30;;;;;;;;;;6349243;22;20007;-95
2022/11/17 06:28:42;;;;;;;0.30;0.30;;;;;;;;;;6359189;22;20018;-94
2022/11/17 06:44:14;;;;;;;0.30;0.30;;;;;;;;;;6341845;22;20007;-94
2022/11/17 06:46:46;;;;;;;0.30;0.30;;;;;;;;;;6339894;22;20019;-95
2022/11/17 06:49:13;;;;;;;0.32;0.32;;;;;;;;;;6311336;22;20015;-94
2022/11/17 06:51:52;;;;;;;0.30;0.30;;;;;;;;;;6339112;22;20006;-94
2022/11/17 06:54:18;;;;;;;0.32;0.32;;;;;;;;;;6310036;22;20023;-93
2022/11/17 06:57:04;;;;;;;0.22;0.22;;;;;;;;;;6312487;22;20014;-95
2022/11/17 06:59:31;;;;;;;0.50;0.50;;;;;;;;;;6307044;22;20019;-95
2022/11/17 07:56:39;;;;;;;0.30;0.30;;;;;;;;;;6354597;22;20027;-95
2022/11/17 09:41:34;;;;;;;0.30;0.30;;;;;;;;;;6376527;22;20018;-95
2022/11/17 10:25:40;;;;;;;0.40;0.40;;;;;;;;;;6358235;22;20018;-94
2022/11/17 10:28:34;;;;;;;0.30;0.30;;;;;;;;;;6313631;22;20066;-95
2022/11/17 10:31:10;;;;;;;0.32;0.32;;;;;;;;;;6313055;22;20030;-94
2022/11/17 10:33:52;;;;;;;0.20;0.20;;;;;;;;;;6314953;22;20029;-95
2022/11/17 10:36:31;;;;;;;0.40;0.40;;;;;;;;;;6313927;22;20023;-92
2022/11/17 10:39:44;;;;;;;0.22;0.22;;;;;;;;;;6315580;22;20014;-93
2022/11/17 10:42:28;;;;;;;0.20;0.20;;;;;;;;;;6317520;22;20104;-93
2022/11/17 10:44:58;;;;;;;0.30;0.30;;;;;;;;;;6340516;22;20050;-93
2022/11/17 10:47:27;;;;;;;0.30;0.30;;;;;;;;;;6313917;22;20015;-92
2022/11/17 10:50:28;;;;;;;0.22;0.22;;;;;;;;;;6341965;22;20006;-94
2022/11/17 10:53:17;;;;;;;0.40;0.40;;;;;;;;;;6340481;22;20034;-93
2022/11/17 10:58:25;;;;;;;0.20;0.20;;;;;;;;;;6334801;22;20236;-95
2022/11/17 11:01:02;;;;;;;0.22;0.22;;;;;;;;;;6308424;22;20011;-94
2022/11/17 11:03:30;;;;;;;0.20;0.20;;;;;;;;;;6284147;22;20007;-94
2022/11/17 11:06:06;;;;;;;0.22;0.22;;;;;;;;;;6303287;22;20075;-91
2022/11/17 11:08:36;;;;;;;0.60;0.55;;;;;;;;;;6284163;22;20030;-91
2022/11/17 11:11:21;;;;;;;0.30;0.30;;;;;;;;;;6310414;22;20003;-93
2022/11/17 11:13:59;;;;;;;0.30;0.30;;;;;;;;;;6278276;22;20023;-92
2022/11/17 11:16:31;;;;;;;0.30;0.30;;;;;;;;;;6281047;22;20020;-91
2022/11/17 11:18:58;;;;;;;0.40;0.40;;;;;;;;;;6283327;22;20007;-92
2022/11/17 11:21:34;;;;;;;0.40;0.40;;;;;;;;;;6282495;22;20009;-92
2022/11/17 11:24:34;;;;;;;0.40;0.40;;;;;;;;;;6282450;22;20006;-92
2022/11/17 11:27:30;;;;;;;0.40;0.40;;;;;;;;;;6293333;22;20067;-93
2022/11/17 11:29:59;;;;;;;0.40;0.40;;;;;;;;;;6308559;22;19999;-90
2022/11/17 11:43:28;;;;;;;0.40;0.40;;;;;;;;;;6347817;22;20010;-93
2022/11/17 11:46:33;;;;;;;;;;;;;;;;;;;;;
2022/11/17 11:49:10;;;;;;;0.30;0.30;;;;;;;;;;6357519;22;20002;-92
2022/11/17 11:51:39;;;;;;;0.28;0.28;;;;;;;;;;6366337;22;20036;-90
2022/11/17 11:54:32;;;;;;;0.30;0.30;;;;;;;;;;6339414;22;20022;-91
2022/11/17 11:57:03;;;;;;;0.30;0.30;;;;;;;;;;6363406;22;20028;-92
2022/11/17 11:59:49;;;;;;;0.30;0.30;;;;;;;;;;6313070;22;20011;-93
2022/11/17 12:02:59;;;;;;;0.30;0.30;;;;;;;;;;6365047;22;20021;-91
2022/11/17 12:05:48;;;;;;;0.30;0.30;;;;;;;;;;6337876;22;20391;-92
2022/11/17 12:09:11;;;;;;;0.38;0.38;;;;;;;;;;6366812;22;20040;-91
2022/11/17 12:27:49;;;;;;;0.40;0.40;;;;;;;;;;6327081;22;20022;-91
2022/11/17 12:30:35;;;;;;;0.17;0.17;;;;;;;;;;6312873;22;20067;-91
2022/11/17 12:33:03;;;;;;;0.30;0.30;;;;;;;;;;6282495;22;20015;-92
2022/11/17 12:35:42;;;;;;;0.30;0.30;;;;;;;;;;6282812;22;20007;-92
2022/11/17 12:38:28;;;;;;;0.20;0.20;;;;;;;;;;6328520;22;20016;-93
2022/11/17 12:41:05;;;;;;;0.30;0.30;;;;;;;;;;6282567;22;20041;-92
2022/11/17 12:43:37;;;;;;;0.38;0.38;;;;;;;;;;6280197;22;20004;-93
2022/11/17 12:46:13;;;;;;;0.30;0.30;;;;;;;;;;6307460;22;20071;-93
2022/11/17 12:48:50;;;;;;;0.22;0.22;;;;;;;;;;6283148;22;19999;-92
2022/11/17 12:51:35;;;;;;;0.20;0.20;;;;;;;;;;6305398;22;19999;-93
2022/11/17 12:54:20;;;;;;;0.20;0.20;;;;;;;;;;6281478;22;20073;-92
2022/11/17 12:57:23;;;;;;;0.25;0.25;;;;;;;;;;6296687;22;20015;-92
2022/11/17 12:59:59;;;;;;;0.20;0.20;;;;;;;;;;6284255;22;20030;-91
2022/11/17 13:08:08;;;;;;;0.30;0.30;;;;;;;;;;6345876;22;20040;-91
2022/11/17 13:10:47;;;;;;;0.30;0.30;;;;;;;;;;6314698;22;20002;-90
2022/11/17 13:29:17;;;;;;;0.28;0.28;;;;;;;;;;6358294;22;20105;-88
2022/11/17 13:42:14;;;;;;;0.20;0.20;;;;;;;;;;6332472;22;20007;-92
2022/11/17 13:44:41;;;;;;;0.30;0.30;;;;;;;;;;6280254;22;20038;-92
2022/11/17 13:47:45;;;;;;;0.15;0.15;;;;;;;;;;6281547;22;20011;-91
2022/11/17 13:50:30;;;;;;;0.20;0.20;;;;;;;;;;6280093;22;20019;-91
2022/11/17 13:56:00;;;;;;;0.30;0.30;;;;;;;;;;6306993;22;20023;-90
2022/11/17 13:58:47;;;;;;;0.20;0.20;;;;;;;;;;6306189;22;20007;-89
2022/11/17 14:01:24;;;;;;;0.40;0.40;;;;;;;;;;6333096;22;20041;-91
2022/11/17 14:06:26;;;;;;;0.20;0.20;;;;;;;;;;6326726;22;20007;-91
2022/11/17 14:09:03;;;;;;;0.20;0.20;;;;;;;;;;6280496;22;19999;-92
2022/11/17 14:11:40;;;;;;;0.20;0.20;;;;;;;;;;6307023;22;20054;-92
2022/11/17 14:14:19;;;;;;;0.20;0.20;;;;;;;;;;6306458;22;20015;-92
2022/11/17 14:16:45;;;;;;;0.20;0.20;;;;;;;;;;6279903;22;20015;-91
2022/11/17 14:19:14;;;;;;;0.20;0.20;;;;;;;;;;6255888;22;20031;-91
2022/11/17 14:22:23;;;;;;;0.10;0.10;;;;;;;;;;6308364;22;20022;-91
2022/11/17 14:24:52;;;;;;;0.10;0.10;;;;;;;;;;6157094;23;20016;-90
2022/11/17 14:27:27;;;;;;;0.20;0.20;;;;;;;;;;6106209;23;20036;-91
2022/11/17 14:30:00;;;;;;;0.20;0.20;;;;;;;;;;6244615;22;20019;-92
2022/11/17 14:32:33;;;;;;;0.28;0.28;;;;;;;;;;6282373;22;20063;-91
2022/11/17 14:35:11;;;;;;;0.20;0.20;;;;;;;;;;6303851;22;20043;-90
2022/11/17 14:38:46;;;;;;;0.30;0.30;;;;;;;;;;6335920;22;20042;-92
2022/11/17 14:41:14;;;;;;;0.10;0.10;;;;;;;;;;6286541;22;20027;-91
2022/11/17 14:43:47;;;;;;;0.10;0.10;;;;;;;;;;6307938;22;20003;-91
2022/11/17 14:46:45;;;;;;;0.20;0.20;;;;;;;;;;6282878;22;20200;-91
2022/11/17 14:49:26;;;;;;;0.20;0.20;;;;;;;;;;6308459;22;20026;-90
2022/11/17 14:51:59;;;;;;;0.30;0.30;;;;;;;;;;6256048;22;20046;-90
2022/11/17 14:54:46;;;;;;;0.13;0.13;;;;;;;;;;6312005;22;20017;-90
2022/11/17 14:57:13;;;;;;;0.25;0.25;;;;;;;;;;6305888;22;20011;-88
2022/11/17 14:59:42;;;;;;;0.20;0.20;;;;;;;;;;6282811;22;20034;-89
2022/11/17 15:02:09;;;;;;;0.20;0.20;;;;;;;;;;6282888;22;20026;-90
2022/11/17 15:04:43;;;;;;;0.30;0.30;;;;;;;;;;6306280;22;20039;-90
2022/11/17 15:07:09;;;;;;;0.10;0.10;;;;;;;;;;6282734;22;20020;-91
2022/11/17 15:09:42;;;;;;;0.25;0.25;;;;;;;;;;6280727;22;20015;-90
2022/11/17 15:12:08;;;;;;;0.20;0.20;;;;;;;;;;6281186;22;20019;-90
2022/11/17 15:14:37;;;;;;;0.20;0.20;;;;;;;;;;6281918;22;20023;-90
2022/11/17 15:17:04;;;;;;;0.20;0.20;;;;;;;;;;6306994;22;19995;-90
2022/11/17 15:19:32;;;;;;;0.10;0.10;;;;;;;;;;6283149;22;20019;-91
2022/11/17 15:22:01;;;;;;;0.28;0.28;;;;;;;;;;6306734;22;20034;-91
2022/11/17 15:24:27;;;;;;;0.30;0.30;;;;;;;;;;6281704;22;20031;-90
2022/11/17 15:26:55;;;;;;;0.20;0.20;;;;;;;;;;6304367;22;20023;-90
2022/11/17 15:29:22;;;;;;;0.20;0.20;;;;;;;;;;6306779;22;20022;-91
2022/11/17 15:31:48;;;;;;;0.30;0.30;;;;;;;;;;6281266;22;19999;-90
2022/11/17 15:34:15;;;;;;;0.22;0.22;;;;;;;;;;6306811;22;20023;-90
2022/11/17 15:36:43;;;;;;;0.30;0.30;;;;;;;;;;6305916;22;20019;-90
2022/11/17 15:39:10;;;;;;;0.10;0.10;;;;;;;;;;6281427;22;20055;-90
2022/11/17 15:41:37;;;;;;;0.20;0.20;;;;;;;;;;6280907;22;20055;-90
2022/11/17 15:44:07;;;;;;;0.30;0.30;;;;;;;;;;6307738;22;20011;-89
2022/11/17 15:46:45;;;;;;;0.30;0.30;;;;;;;;;;6257368;22;20000;-89
2022/11/17 15:49:14;;;;;;;0.30;0.30;;;;;;;;;;6306018;22;20026;-90
2022/11/17 15:51:42;;;;;;;0.20;0.20;;;;;;;;;;6256449;22;20000;-91
2022/11/17 15:54:13;;;;;;;0.30;0.30;;;;;;;;;;6305388;22;20019;-90
2022/11/17 15:56:40;;;;;;;0.20;0.20;;;;;;;;;;6255504;22;20015;-91
2022/11/17 15:59:13;;;;;;;0.20;0.20;;;;;;;;;;6280083;22;20011;-91
2022/11/17 16:01:39;;;;;;;0.20;0.20;;;;;;;;;;6275903;22;20393;-90
2022/11/17 16:07:14;;;;;;;0.20;0.20;;;;;;;;;;6331774;22;20030;-90
2022/11/17 16:09:48;;;;;;;0.20;0.20;;;;;;;;;;6286329;22;20041;-91
2022/11/17 16:12:17;;;;;;;0.20;0.20;;;;;;;;;;6309327;22;20038;-90
2022/11/17 16:14:44;;;;;;;0.20;0.20;;;;;;;;;;6306218;22;20069;-89
2022/11/17 16:17:10;;;;;;;0.20;0.20;;;;;;;;;;6309576;22;20034;-91
2022/11/17 16:19:38;;;;;;;0.20;0.20;;;;;;;;;;6309585;22;20061;-90
2022/11/17 16:22:04;;;;;;;0.20;0.20;;;;;;;;;;6308893;22;20015;-91
2022/11/17 16:24:30;;;;;;;0.40;0.40;;;;;;;;;;6309093;22;20019;-90
2022/11/17 16:26:56;;;;;;;0.20;0.20;;;;;;;;;;6307299;22;20019;-91
2022/11/17 16:29:26;;;;;;;0.20;0.20;;;;;;;;;;6307246;22;20048;-92
2022/11/17 16:31:52;;;;;;;0.20;0.20;;;;;;;;;;6308591;22;20018;-91
2022/11/17 16:34:20;;;;;;;0.20;0.20;;;;;;;;;;6308246;22;20010;-92
2022/11/17 16:36:46;;;;;;;0.30;0.30;;;;;;;;;;6307503;22;20037;-90
2022/11/17 16:39:16;;;;;;;0.20;0.20;;;;;;;;;;6306018;22;20034;-91
2022/11/17 16:41:50;;;;;;;0.30;0.30;;;;;;;;;;6309421;22;20014;-90
2022/11/17 16:44:19;;;;;;;0.17;0.17;;;;;;;;;;6311177;22;20041;-92
2022/11/17 16:46:48;;;;;;;0.30;0.30;;;;;;;;;;6332392;22;20010;-90
2022/11/17 16:49:15;;;;;;;0.40;0.40;;;;;;;;;;6307860;22;20488;-91
2022/11/17 16:51:46;;;;;;;0.25;0.25;;;;;;;;;;6304404;22;20050;-92
2022/11/17 16:54:12;;;;;;;0.30;0.30;;;;;;;;;;6304667;22;20026;-91
2022/11/17 16:56:42;;;;;;;0.20;0.20;;;;;;;;;;6307034;22;19994;-91
2022/11/17 16:59:12;;;;;;;0.30;0.30;;;;;;;;;;6305509;22;20015;-90
2022/11/17 17:01:38;;;;;;;0.30;0.30;;;;;;;;;;6304651;22;20018;-90
2022/11/17 17:04:08;;;;;;;0.30;0.30;;;;;;;;;;6302296;22;20072;-90
2022/11/17 17:06:42;;;;;;;0.30;0.30;;;;;;;;;;6303989;22;20515;-91
2022/11/17 17:09:08;;;;;;;0.30;0.30;;;;;;;;;;6277369;22;20018;-91
2022/11/17 17:11:36;;;;;;;0.20;0.20;;;;;;;;;;6304340;22;20042;-91
2022/11/17 17:14:03;;;;;;;0.30;0.30;;;;;;;;;;6307436;22;20038;-91
2022/11/17 17:16:30;;;;;;;0.20;0.20;;;;;;;;;;6304733;22;20452;-90
2022/11/17 17:19:00;;;;;;;0.13;0.13;;;;;;;;;;6306811;22;20015;-91
2022/11/17 17:21:27;;;;;;;0.20;0.20;;;;;;;;;;6278995;22;20026;-91
2022/11/17 17:24:00;;;;;;;0.30;0.30;;;;;;;;;;6309657;22;20018;-91
2022/11/17 17:26:30;;;;;;;0.17;0.17;;;;;;;;;;6307491;22;20005;-90
2022/11/17 17:29:04;;;;;;;0.20;0.20;;;;;;;;;;6335725;22;20058;-90
2022/11/17 17:31:35;;;;;;;0.30;0.30;;;;;;;;;;6332722;22;20046;-90
2022/11/17 17:34:02;;;;;;;0.20;0.20;;;;;;;;;;6309671;22;20014;-90
2022/11/17 17:36:29;;;;;;;0.32;0.32;;;;;;;;;;6307369;22;20011;-89
2022/11/17 17:39:02;;;;;;;0.20;0.20;;;;;;;;;;6305485;22;20014;-90
2022/11/17 17:41:34;;;;;;;0.28;0.28;;;;;;;;;;6335217;22;20021;-90
2022/11/17 17:44:05;;;;;;;0.32;0.32;;;;;;;;;;6307920;22;20071;-90
2022/11/17 17:46:36;;;;;;;0.20;0.20;;;;;;;;;;6309318;22;20019;-90
2022/11/17 17:49:04;;;;;;;0.20;0.20;;;;;;;;;;6307291;22;20022;-90
2022/11/17 17:51:31;;;;;;;0.38;0.38;;;;;;;;;;6281468;22;20030;-89
2022/11/17 17:54:01;;;;;;;0.47;0.47;;;;;;;;;;6332757;22;20013;-89
2022/11/17 17:56:30;;;;;;;0.10;0.10;;;;;;;;;;6361598;22;20028;-90
2022/11/17 17:59:04;;;;;;;0.22;0.22;;;;;;;;;;6309103;22;20439;-90
2022/11/17 18:01:46;;;;;;;;;;;;;;;;;;6339148;22;20028;-91
2022/11/17 18:04:13;;;;;;;0.30;0.30;;;;;;;;;;6313032;22;20331;-90
2022/11/17 18:06:40;;;;;;;0.30;0.30;;;;;;;;;;6309672;22;20019;-90
2022/11/17 18:09:09;;;;;;;0.28;0.28;;;;;;;;;;6310069;22;20046;-87
2022/11/17 18:11:46;;;;;;;0.20;0.20;;;;;;;;;;6336299;22;20356;-90
2022/11/17 18:14:12;;;;;;;0.25;0.25;;;;;;;;;;6310743;22;20037;-90
2022/11/17 18:16:40;;;;;;;0.30;0.30;;;;;;;;;;6306517;22;20035;-90
2022/11/17 18:19:07;;;;;;;0.30;0.30;;;;;;;;;;6280737;22;20021;-90
2022/11/17 18:21:36;;;;;;;0.20;0.20;;;;;;;;;;6308230;22;20015;-89
2022/11/17 18:24:09;;;;;;;0.20;0.20;;;;;;;;;;6307928;22;20003;-89
2022/11/17 18:26:36;;;;;;;0.20;0.20;;;;;;;;;;6307113;22;20019;-89
2022/11/17 18:29:08;;;;;;;0.30;0.30;;;;;;;;;;6334890;22;20019;-89
2022/11/17 18:31:36;;;;;;;0.30;0.30;;;;;;;;;;6307911;22;20030;-89
2022/11/17 18:34:07;;;;;;;0.20;0.20;;;;;;;;;;6307360;22;20386;-89
2022/11/17 18:36:34;;;;;;;0.30;0.30;;;;;;;;;;6305813;22;20038;-90
2022/11/17 18:39:00;;;;;;;0.20;0.20;;;;;;;;;;6306526;22;20015;-89
2022/11/17 18:41:29;;;;;;;0.20;0.20;;;;;;;;;;6278830;22;20110;-89
2022/11/17 18:43:59;;;;;;;0.28;0.28;;;;;;;;;;6330995;22;20011;-89
2022/11/17 18:46:31;;;;;;;0.10;0.10;;;;;;;;;;6305866;22;20033;-89
2022/11/17 18:49:15;;;;;;;0.20;0.20;;;;;;;;;;6303451;22;20200;-89
2022/11/17 18:51:41;;;;;;;0.20;0.20;;;;;;;;;;6303639;22;20018;-89
2022/11/17 18:54:10;;;;;;;0.20;0.20;;;;;;;;;;6305512;22;20041;-89
2022/11/17 18:56:43;;;;;;;0.30;0.30;;;;;;;;;;6293507;22;20019;-90
2022/11/17 18:59:13;;;;;;;0.20;0.20;;;;;;;;;;6354762;22;20015;-88
2022/11/17 19:01:41;;;;;;;0.30;0.30;;;;;;;;;;6306715;22;20015;-88
2022/11/17 19:04:07;;;;;;;0.30;0.30;;;;;;;;;;6307932;22;19999;-89
2022/11/17 19:06:36;;;;;;;0.20;0.20;;;;;;;;;;6305111;22;20061;-89
2022/11/17 19:09:02;;;;;;;0.40;0.40;;;;;;;;;;6330215;22;20022;-90
2022/11/17 19:11:32;;;;;;;0.20;0.20;;;;;;;;;;6306710;22;20022;-89
2022/11/17 19:14:03;;;;;;;0.20;0.20;;;;;;;;;;6304547;22;20050;-88
2022/11/17 19:16:30;;;;;;;0.20;0.20;;;;;;;;;;6304278;22;20345;-89
2022/11/17 19:18:57;;;;;;;1.05;0.95;;;;;;;;;;6306683;22;20011;-89
2022/11/17 19:21:27;;;;;;;0.30;0.30;;;;;;;;;;6307547;22;20018;-89
2022/11/17 19:23:55;;;;;;;0.28;0.28;;;;;;;;;;6303774;22;20093;-89
2022/11/17 19:26:31;;;;;;;0.30;0.30;;;;;;;;;;6305711;22;20058;-89
2022/11/17 19:29:01;;;;;;;0.30;0.30;;;;;;;;;;6306608;22;20018;-89
2022/11/17 19:31:30;;;;;;;0.73;0.73;;;;;;;;;;6299886;22;20018;-89
2022/11/17 19:33:57;;;;;;;0.20;0.20;;;;;;;;;;6304015;22;20031;-88
2022/11/17 19:36:24;;;;;;;0.30;0.30;;;;;;;;;;6305557;22;20014;-89
2022/11/17 19:38:52;;;;;;;0.20;0.20;;;;;;;;;;6304313;22;20062;-89
2022/11/17 19:41:19;;;;;;;0.30;0.30;;;;;;;;;;6302289;22;20391;-88
2022/11/17 19:43:48;;;;;;;0.30;0.30;;;;;;;;;;6331883;22;20050;-89
2022/11/17 19:46:16;;;;;;;0.30;0.30;;;;;;;;;;6303141;22;20406;-89
2022/11/17 19:48:43;;;;;;;0.30;0.30;;;;;;;;;;6279295;22;20015;-89
2022/11/17 19:51:13;;;;;;;0.20;0.20;;;;;;;;;;6280693;22;20019;-89
2022/11/17 19:53:39;;;;;;;0.13;0.13;;;;;;;;;;6305232;22;20064;-88
2022/11/17 19:56:06;;;;;;;0.30;0.30;;;;;;;;;;6302518;22;20075;-88
2022/11/17 19:58:35;;;;;;;0.25;0.25;;;;;;;;;;6306412;22;20011;-87
2022/11/17 20:01:08;;;;;;;0.20;0.20;;;;;;;;;;6305834;22;20015;-88
2022/11/17 20:03:36;;;;;;;0.20;0.20;;;;;;;;;;6332127;22;20025;-88
2022/11/17 20:06:02;;;;;;;0.30;0.30;;;;;;;;;;6304565;22;20050;-88
2022/11/17 20:08:29;;;;;;;0.30;0.30;;;;;;;;;;6332507;22;20015;-89
2022/11/17 20:11:15;;;;;;;0.30;0.30;;;;;;;;;;6303718;22;20053;-89
2022/11/17 20:13:45;;;;;;;0.20;0.20;;;;;;;;;;6329070;22;20018;-89
2022/11/17 20:16:13;;;;;;;0.30;0.30;;;;;;;;;;6298651;22;20059;-89
2022/11/17 20:18:40;;;;;;;0.25;0.25;;;;;;;;;;6302752;22;20022;-90
2022/11/17 20:21:08;;;;;;;0.32;0.32;;;;;;;;;;6303714;22;20041;-89
2022/11/17 20:23:35;;;;;;;0.30;0.30;;;;;;;;;;6277353;22;20025;-89
2022/11/17 20:26:12;;;;;;;0.28;0.28;;;;;;;;;;6328581;22;20026;-88
2022/11/17 20:28:39;;;;;;;0.73;0.73;;;;;;;;;;6301857;22;20094;-90
2022/11/17 20:31:25;;;;;;;0.30;0.30;;;;;;;;;;6301059;22;20019;-89
2022/11/17 20:33:52;;;;;;;0.20;0.20;;;;;;;;;;6303595;22;20015;-89
2022/11/17 20:36:19;;;;;;;0.20;0.20;;;;;;;;;;6302621;22;20501;-89
2022/11/17 20:38:52;;;;;;;0.30;0.30;;;;;;;;;;6328252;22;20072;-90
2022/11/17 20:41:19;;;;;;;0.20;0.20;;;;;;;;;;6301224;22;20015;-88
2022/11/17 20:43:50;;;;;;;0.30;0.30;;;;;;;;;;6302466;22;20061;-88
2022/11/17 20:46:20;;;;;;;0.40;0.40;;;;;;;;;;6299370;22;20018;-89
2022/11/17 20:48:46;;;;;;;0.20;0.20;;;;;;;;;;6297867;22;20068;-90
2022/11/17 20:51:13;;;;;;;0.30;0.30;;;;;;;;;;6299145;22;20093;-90
2022/11/17 20:53:39;;;;;;;0.30;0.30;;;;;;;;;;6300415;22;20019;-89
2022/11/17 20:56:07;;;;;;;0.28;0.28;;;;;;;;;;6326703;22;20022;-88
2022/11/17 20:58:33;;;;;;;0.30;0.30;;;;;;;;;;6303922;22;20011;-89
2022/11/17 21:01:10;;;;;;;0.30;0.30;;;;;;;;;;6329316;22;20035;-88
2022/11/17 21:03:36;;;;;;;0.40;0.40;;;;;;;;;;6297592;22;20042;-89
2022/11/17 21:06:03;;;;;;;0.40;0.40;;;;;;;;;;6302308;22;20097;-88
2022/11/17 21:08:30;;;;;;;0.30;0.30;;;;;;;;;;6301674;22;20070;-88
2022/11/17 21:11:02;;;;;;;0.20;0.20;;;;;;;;;;6303335;22;20070;-89
2022/11/17 21:13:30;;;;;;;0.30;0.30;;;;;;;;;;6304221;22;20018;-89
2022/11/17 21:16:08;;;;;;;0.30;0.30;;;;;;;;;;6301335;22;20015;-89
2022/11/17 21:18:35;;;;;;;0.28;0.28;;;;;;;;;;6302926;22;20496;-89
2022/11/17 21:21:07;;;;;;;0.30;0.30;;;;;;;;;;6305019;22;20022;-89
2022/11/17 21:23:33;;;;;;;0.30;0.30;;;;;;;;;;6304775;22;20033;-88
2022/11/17 21:26:02;;;;;;;0.30;0.30;;;;;;;;;;6306051;22;20068;-89
2022/11/17 21:28:29;;;;;;;0.30;0.30;;;;;;;;;;6306119;22;20015;-89
2022/11/17 21:31:01;;;;;;;0.30;0.30;;;;;;;;;;6276063;22;20019;-89
2022/11/17 21:33:27;;;;;;;0.30;0.30;;;;;;;;;;6300859;22;20020;-88
2022/11/17 21:35:59;;;;;;;0.30;0.30;;;;;;;;;;6305920;22;20021;-88
2022/11/17 21:38:25;;;;;;;0.20;0.20;;;;;;;;;;6305435;22;20040;-88
2022/11/17 21:41:01;;;;;;;0.20;0.20;;;;;;;;;;6331726;22;20011;-89
2022/11/17 21:43:29;;;;;;;0.20;0.20;;;;;;;;;;6358605;22;20076;-89
2022/11/17 21:46:07;;;;;;;0.20;0.20;;;;;;;;;;6332660;22;20045;-89
2022/11/17 21:48:35;;;;;;;0.57;0.57;;;;;;;;;;6302980;22;20022;-89
2022/11/17 21:51:02;;;;;;;0.30;0.30;;;;;;;;;;6301361;22;20026;-89
2022/11/17 21:53:29;;;;;;;0.30;0.30;;;;;;;;;;6303194;22;20054;-89
2022/11/17 21:56:01;;;;;;;0.30;0.30;;;;;;;;;;6302652;22;20015;-89
2022/11/17 21:58:33;;;;;;;0.30;0.30;;;;;;;;;;6305863;22;20022;-88
2022/11/17 22:01:07;;;;;;;0.40;0.40;;;;;;;;;;6304441;22;20122;-89
2022/11/17 22:03:35;;;;;;;0.40;0.40;;;;;;;;;;6304593;22;20022;-88
2022/11/17 22:06:13;;;;;;;0.20;0.20;;;;;;;;;;6330727;22;20019;-89
2022/11/17 22:08:52;;;;;;;0.30;0.30;;;;;;;;;;6308973;22;19998;-89
2022/11/17 22:11:35;;;;;;;0.30;0.30;;;;;;;;;;6303684;22;20026;-89
2022/11/17 22:14:02;;;;;;;0.30;0.30;;;;;;;;;;6303713;22;20011;-89
2022/11/17 22:16:31;;;;;;;0.30;0.30;;;;;;;;;;6306109;22;20018;-89
2022/11/17 22:18:58;;;;;;;0.30;0.30;;;;;;;;;;6281352;22;20015;-89
2022/11/17 22:21:24;;;;;;;0.20;0.20;;;;;;;;;;6305326;22;20011;-87
2022/11/17 22:23:50;;;;;;;0.25;0.25;;;;;;;;;;6302950;22;20019;-87
2022/11/17 22:26:17;;;;;;;0.30;0.30;;;;;;;;;;6307021;22;20044;-89
2022/11/17 22:28:43;;;;;;;0.30;0.30;;;;;;;;;;6327252;22;20021;-89
2022/11/17 22:31:10;;;;;;;0.20;0.20;;;;;;;;;;6303005;22;20019;-89
2022/11/17 22:33:38;;;;;;;0.30;0.30;;;;;;;;;;6305092;22;20019;-88
2022/11/17 22:36:07;;;;;;;0.25;0.25;;;;;;;;;;6330559;22;20485;-88
2022/11/17 22:38:34;;;;;;;0.20;0.20;;;;;;;;;;6332256;22;20058;-89
2022/11/17 22:41:01;;;;;;;0.60;0.60;;;;;;;;;;6306155;22;20082;-89
2022/11/17 22:43:27;;;;;;;0.20;0.20;;;;;;;;;;6301653;22;20068;-88
2022/11/17 22:45:53;;;;;;;0.30;0.30;;;;;;;;;;6306782;22;20079;-89
2022/11/17 22:48:19;;;;;;;0.30;0.30;;;;;;;;;;6334078;22;20018;-90
2022/11/17 22:50:46;;;;;;;0.30;0.30;;;;;;;;;;6307452;22;20026;-90
2022/11/17 22:53:13;;;;;;;0.40;0.40;;;;;;;;;;6307713;22;20018;-89
2022/11/17 22:55:39;;;;;;;0.30;0.30;;;;;;;;;;6284229;22;20086;-89
2022/11/17 22:58:06;;;;;;;0.30;0.30;;;;;;;;;;6306837;22;20015;-89